Aérodrome :
LOGIN :

S'inscrire | Disclaimer

   EN    FR    IT 

 










Légende :    VFR   VFR Marginal   IFR   IFR Intensif   IFR Très Intensif
Visi : 
Plafond : 
>= 8 km
>= 3000ft
5 à 8 km
1000 à 3000 ft
1500m à 5 km
500 à 1000 ft
800 à 1500m
200 à 500 ft
< 800m
< 200 ft
Symboles :   Orages  Brouillard  Fortes neiges  Fortes précipitations  Vent > 20 kt
SIGMETs :   Divers  Orages  Givrage  Turbulence  Onde Orograph.  Cendres Volcan.






- Altitude de l'aérodrome : 154 ft
- Code IATA : SZZ


EPSC - Szczecin Goleniow

DERNIER METAR :
  • 021200Z 24007KT 180V290 9999 FEW038 22/12 Q1009

METARs EXPIRÉS :
  • 021130Z 23008KT 180V300 9999 FEW037 22/12 Q1009
  • 021100Z 24009KT 180V300 9999 FEW035 22/12 Q1009
  • 021030Z 24009KT 210V270 9999 FEW034 BKN047 20/12 Q1009
  • 021000Z 26009KT 220V290 9999 FEW034 BKN039 20/12 Q1009
  • 020930Z 24010KT 210V270 9999 BKN034 20/11 Q1009

TAF TAF EPSC
Valide du 02 à 12h jusqu'au 03 à 12h UTC


021130Z 0212/0312 24010KT 9999 SCT035
TEMPO 0213/0221 -SHRA SCT030CB
BECMG 0215/0217 VRB02KT
PROB40 0301/0305 4000 BR
BECMG 0305/0308 27010KT
PROB40 0305/0309 BKN010



MET'MAP, la Météo Aéronautique d'un coup d'oeil ! - Copyright ORBIFLY Décembre 2007 - Disclaimer

ORBIFLY MET'MAP TEAM :

Programmation & Développement : Alexandra Zaïnal
Sur une idée originale de : Baudouin d'Aumeries
Assistance à la programmation : Marc-Olivier Méhu
Soutien technique & logistique : Manuel Goepfert

Contact : metmap@orbifly.com




SOURCES & CREDITS :

   NOAA